Time;durP1;ratioP1;P1;durP2;ratioP2;P2;SDS_P1;SDS_P2;PMS_P1;PMS_P2;Temp;Humidity;BMP_temperature;BMP_pressure;BME280_temperature;BME280_humidity;BME280_pressure;Samples;Min_cycle;Max_cycle;Signal;HPM_P1;HPM_P2
2022/05/01 00:01:29;;;;;;;15.02;6.28;;;;;;;;;;4920349;29;20369;-76
2022/05/01 00:03:55;;;;;;;11.73;5.10;;;;;;;;;;4921186;29;20028;-74
2022/05/01 00:06:20;;;;;;;15.18;5.63;;;;;;;;;;4920392;29;20336;-74
2022/05/01 00:08:46;;;;;;;11.80;6.03;;;;;;;;;;4919131;29;20107;-74
2022/05/01 00:11:15;;;;;;;10.02;5.30;;;;;;;;;;4918501;29;20071;-78
2022/05/01 00:13:41;;;;;;;10.88;4.93;;;;;;;;;;4916878;29;20023;-78
2022/05/01 00:16:06;;;;;;;10.60;5.82;;;;;;;;;;4917278;29;20527;-77
2022/05/01 00:18:31;;;;;;;11.60;5.00;;;;;;;;;;4918512;29;20032;-77
2022/05/01 00:20:57;;;;;;;11.88;5.10;;;;;;;;;;4901337;29;20391;-76
2022/05/01 00:23:22;;;;;;;7.20;4.65;;;;;;;;;;4918471;29;20071;-77
2022/05/01 00:25:47;;;;;;;12.82;4.75;;;;;;;;;;4901497;29;20028;-76
2022/05/01 00:28:13;;;;;;;10.40;4.63;;;;;;;;;;4918202;29;20032;-78
2022/05/01 00:30:39;;;;;;;11.60;5.05;;;;;;;;;;4916790;29;20024;-78
2022/05/01 00:38:33;;;;;;;11.25;4.93;;;;;;;;;;4919499;29;20079;-78
2022/05/01 00:40:59;;;;;;;10.65;4.55;;;;;;;;;;4902838;29;20114;-75
2022/05/01 00:43:25;;;;;;;12.82;5.15;;;;;;;;;;4918500;29;20055;-76
2022/05/01 00:45:50;;;;;;;8.73;4.60;;;;;;;;;;4921436;29;20034;-74
2022/05/01 00:48:15;;;;;;;6.90;4.20;;;;;;;;;;4918788;29;20020;-75
2022/05/01 00:50:41;;;;;;;13.45;5.20;;;;;;;;;;4924042;29;20020;-74
2022/05/01 00:53:07;;;;;;;7.45;4.35;;;;;;;;;;4901483;29;20017;-76
2022/05/01 00:55:33;;;;;;;11.40;5.03;;;;;;;;;;4902175;29;20181;-76
2022/05/01 00:57:59;;;;;;;10.30;5.00;;;;;;;;;;4902899;29;20034;-75
2022/05/01 01:00:24;;;;;;;10.63;4.75;;;;;;;;;;4922729;29;20063;-74
2022/05/01 01:02:50;;;;;;;9.05;4.35;;;;;;;;;;4920872;29;20024;-75
2022/05/01 01:05:15;;;;;;;14.73;5.00;;;;;;;;;;4905914;29;20024;-74
2022/05/01 01:07:42;;;;;;;12.45;5.28;;;;;;;;;;4918739;29;20020;-74
2022/05/01 01:10:07;;;;;;;12.57;4.53;;;;;;;;;;4902045;29;20099;-76
2022/05/01 01:15:16;;;;;;;7.70;4.60;;;;;;;;;;4918826;29;20031;-74
2022/05/01 01:17:42;;;;;;;9.20;5.57;;;;;;;;;;4902562;29;20020;-74
2022/05/01 01:20:12;;;;;;;10.02;4.82;;;;;;;;;;4901601;29;20116;-75
2022/05/01 01:22:39;;;;;;;10.60;4.75;;;;;;;;;;4916381;29;20058;-75
2022/05/01 01:25:05;;;;;;;13.32;4.45;;;;;;;;;;4915588;29;20036;-73
2022/05/01 01:27:30;;;;;;;10.57;4.88;;;;;;;;;;4917320;29;20047;-75
2022/05/01 01:32:40;;;;;;;12.05;4.70;;;;;;;;;;4917711;29;20142;-75
2022/05/01 01:35:06;;;;;;;9.82;4.57;;;;;;;;;;4901661;29;20467;-76
2022/05/01 01:37:33;;;;;;;7.65;4.13;;;;;;;;;;4919540;29;20020;-75
2022/05/01 01:39:58;;;;;;;8.85;4.35;;;;;;;;;;4900496;29;20481;-75
2022/05/01 01:42:25;;;;;;;9.90;4.30;;;;;;;;;;4919315;29;20036;-76
2022/05/01 01:44:51;;;;;;;8.60;4.68;;;;;;;;;;4916933;29;20051;-75
2022/05/01 01:47:17;;;;;;;9.02;4.38;;;;;;;;;;4900952;29;20055;-76
2022/05/01 01:49:43;;;;;;;12.35;4.47;;;;;;;;;;4917547;29;20021;-76
2022/05/01 01:52:08;;;;;;;9.45;4.78;;;;;;;;;;4917173;29;20020;-75
2022/05/01 01:54:34;;;;;;;7.15;4.38;;;;;;;;;;4915584;29;20598;-76
2022/05/01 01:56:59;;;;;;;9.70;4.78;;;;;;;;;;4916833;29;20457;-76
2022/05/01 01:59:24;;;;;;;12.88;4.82;;;;;;;;;;4916184;29;20038;-76
2022/05/01 02:01:50;;;;;;;8.98;5.57;;;;;;;;;;4916989;29;20035;-76
2022/05/01 02:04:15;;;;;;;13.65;4.53;;;;;;;;;;4916078;29;20448;-76
2022/05/01 02:06:41;;;;;;;10.55;4.60;;;;;;;;;;4916449;29;20047;-76
2022/05/01 02:09:07;;;;;;;9.45;4.18;;;;;;;;;;4899470;29;20369;-76
2022/05/01 02:11:36;;;;;;;10.02;4.10;;;;;;;;;;4916314;29;20020;-75
2022/05/01 02:14:01;;;;;;;9.63;4.05;;;;;;;;;;4898968;29;20020;-75
2022/05/01 02:16:27;;;;;;;6.43;3.85;;;;;;;;;;4914868;29;20115;-76
2022/05/01 02:18:52;;;;;;;11.10;4.65;;;;;;;;;;4915017;29;20489;-75
2022/05/01 02:21:36;;;;;;;16.05;4.30;;;;;;;;;;4899153;29;20496;-75
2022/05/01 02:24:12;;;;;;;10.70;4.45;;;;;;;;;;4914555;29;20028;-75
2022/05/01 02:26:38;;;;;;;12.48;4.85;;;;;;;;;;4916357;29;20032;-76
2022/05/01 02:29:10;;;;;;;7.75;3.78;;;;;;;;;;4899050;29;20036;-76
2022/05/01 02:31:39;;;;;;;6.75;3.30;;;;;;;;;;4898697;29;20172;-76
2022/05/01 02:34:05;;;;;;;10.52;3.97;;;;;;;;;;4915647;29;20035;-75
2022/05/01 02:36:30;;;;;;;7.03;3.50;;;;;;;;;;4899019;29;20020;-76
2022/05/01 02:38:55;;;;;;;10.45;4.07;;;;;;;;;;4916140;29;20016;-76
2022/05/01 02:41:21;;;;;;;7.63;3.75;;;;;;;;;;4899018;29;20111;-75
2022/05/01 02:43:47;;;;;;;8.48;3.70;;;;;;;;;;4898512;29;20443;-75
2022/05/01 02:46:13;;;;;;;10.70;4.18;;;;;;;;;;4915774;29;20046;-76
2022/05/01 02:48:38;;;;;;;9.52;3.55;;;;;;;;;;4898855;29;20036;-75
2022/05/01 02:51:04;;;;;;;10.60;3.70;;;;;;;;;;4914984;29;20031;-76
2022/05/01 02:53:30;;;;;;;9.15;3.28;;;;;;;;;;4915553;29;20392;-74
2022/05/01 02:56:00;;;;;;;5.97;3.20;;;;;;;;;;4914554;29;20119;-74
2022/05/01 02:58:26;;;;;;;6.13;3.33;;;;;;;;;;4914399;29;20052;-75
2022/05/01 03:00:51;;;;;;;7.50;3.30;;;;;;;;;;4915833;29;20078;-75
2022/05/01 03:03:16;;;;;;;10.70;3.63;;;;;;;;;;4898134;29;20031;-75
2022/05/01 03:05:41;;;;;;;6.97;3.50;;;;;;;;;;4915631;29;20075;-75
2022/05/01 03:08:07;;;;;;;8.20;3.42;;;;;;;;;;4915725;29;20024;-75
2022/05/01 03:10:32;;;;;;;7.63;3.50;;;;;;;;;;4914374;29;20392;-76
2022/05/01 03:12:58;;;;;;;8.57;3.13;;;;;;;;;;4898431;29;20380;-76
2022/05/01 03:15:24;;;;;;;9.68;3.25;;;;;;;;;;4914330;29;20116;-75
2022/05/01 03:23:17;;;;;;;6.18;3.03;;;;;;;;;;4915300;29;20472;-74
2022/05/01 03:25:43;;;;;;;5.53;3.13;;;;;;;;;;4915490;29;20020;-75
2022/05/01 03:28:08;;;;;;;7.70;3.25;;;;;;;;;;4915466;29;20031;-76
2022/05/01 03:30:34;;;;;;;6.35;3.17;;;;;;;;;;4915681;29;20052;-76
2022/05/01 03:32:59;;;;;;;9.40;3.42;;;;;;;;;;4931011;23;20102;-80
2022/05/01 03:35:24;;;;;;;7.38;3.22;;;;;;;;;;4936494;29;20042;-79
2022/05/01 03:37:50;;;;;;;9.95;3.42;;;;;;;;;;4919060;29;20055;-80
2022/05/01 03:40:16;;;;;;;6.32;3.05;;;;;;;;;;4918982;29;20118;-79
2022/05/01 03:42:41;;;;;;;9.43;3.35;;;;;;;;;;4936657;29;20176;-79
2022/05/01 03:45:08;;;;;;;7.03;2.72;;;;;;;;;;4922427;29;20032;-80
2022/05/01 03:47:34;;;;;;;7.35;3.30;;;;;;;;;;4939314;29;20028;-80
2022/05/01 03:49:59;;;;;;;6.00;3.00;;;;;;;;;;4940331;29;20027;-80
2022/05/01 03:52:24;;;;;;;7.57;2.95;;;;;;;;;;4922560;29;20383;-78
2022/05/01 03:54:50;;;;;;;8.05;3.22;;;;;;;;;;4922431;29;20027;-81
2022/05/01 03:57:18;;;;;;;6.38;3.22;;;;;;;;;;4925106;29;20031;-81
2022/05/01 03:59:43;;;;;;;7.22;3.33;;;;;;;;;;4946822;29;20024;-77
2022/05/01 04:02:08;;;;;;;9.18;3.25;;;;;;;;;;4936486;29;20149;-80
2022/05/01 04:04:35;;;;;;;6.50;3.40;;;;;;;;;;4952096;29;20039;-79
2022/05/01 04:07:03;;;;;;;7.38;3.38;;;;;;;;;;4933242;29;20471;-81
2022/05/01 04:09:29;;;;;;;6.47;3.00;;;;;;;;;;4939475;29;20028;-80
2022/05/01 04:11:54;;;;;;;9.15;3.00;;;;;;;;;;4939225;29;20055;-80
2022/05/01 04:14:28;;;;;;;10.02;3.38;;;;;;;;;;4920551;29;20052;-80
2022/05/01 04:16:55;;;;;;;5.90;2.80;;;;;;;;;;4937889;29;20023;-80
2022/05/01 04:19:20;;;;;;;4.57;2.95;;;;;;;;;;4937873;29;20022;-80
2022/05/01 04:21:45;;;;;;;7.00;3.05;;;;;;;;;;4937434;29;20016;-81
2022/05/01 04:24:10;;;;;;;9.30;3.63;;;;;;;;;;4919937;29;20074;-80
2022/05/01 04:26:36;;;;;;;7.75;3.05;;;;;;;;;;4920188;29;20054;-80
2022/05/01 04:31:45;;;;;;;6.28;3.15;;;;;;;;;;4937157;29;20094;-80
2022/05/01 04:34:10;;;;;;;7.30;2.95;;;;;;;;;;4937081;29;20614;-78
2022/05/01 04:36:41;;;;;;;11.00;3.33;;;;;;;;;;4920116;29;20020;-79
2022/05/01 04:39:06;;;;;;;7.75;2.90;;;;;;;;;;4919671;29;20070;-80
2022/05/01 04:41:31;;;;;;;4.68;2.63;;;;;;;;;;4919708;29;20118;-79
2022/05/01 04:44:00;;;;;;;8.65;3.30;;;;;;;;;;4936600;29;20020;-78
2022/05/01 04:46:25;;;;;;;7.55;3.35;;;;;;;;;;4936757;29;20023;-78
2022/05/01 04:48:50;;;;;;;5.72;2.97;;;;;;;;;;4936774;29;20498;-79
2022/05/01 04:51:15;;;;;;;5.88;2.60;;;;;;;;;;4936561;29;20106;-79
2022/05/01 04:53:40;;;;;;;8.55;3.55;;;;;;;;;;4936012;29;20502;-80
2022/05/01 04:58:59;;;;;;;8.10;3.28;;;;;;;;;;4936541;29;20026;-79
2022/05/01 05:01:24;;;;;;;6.93;3.47;;;;;;;;;;4936422;29;20023;-77
2022/05/01 05:03:50;;;;;;;7.47;3.33;;;;;;;;;;4918936;29;20391;-79
2022/05/01 05:06:15;;;;;;;8.82;3.28;;;;;;;;;;4936255;29;20102;-79
2022/05/01 05:11:24;;;;;;;5.57;3.15;;;;;;;;;;4936288;29;20062;-79
2022/05/01 05:13:49;;;;;;;5.85;2.80;;;;;;;;;;4918553;29;20027;-80
2022/05/01 05:16:15;;;;;;;10.20;3.00;;;;;;;;;;4936247;29;20015;-80
2022/05/01 05:18:40;;;;;;;7.95;2.88;;;;;;;;;;4918942;29;20460;-78
2022/05/01 05:21:06;;;;;;;8.25;3.50;;;;;;;;;;4918869;29;20447;-78
2022/05/01 05:23:34;;;;;;;6.40;3.42;;;;;;;;;;4935686;29;20360;-78
2022/05/01 05:25:59;;;;;;;8.25;3.10;;;;;;;;;;4936077;29;20031;-78
2022/05/01 05:28:33;;;;;;;6.63;2.90;;;;;;;;;;4935980;29;20095;-80
2022/05/01 05:30:58;;;;;;;11.60;3.53;;;;;;;;;;4918734;29;20023;-80
2022/05/01 05:33:24;;;;;;;5.53;2.90;;;;;;;;;;4935145;29;20039;-80
2022/05/01 05:35:50;;;;;;;10.18;3.40;;;;;;;;;;4935886;29;20020;-80
2022/05/01 05:38:16;;;;;;;10.18;3.42;;;;;;;;;;4918689;29;20020;-78
2022/05/01 05:40:41;;;;;;;6.57;3.20;;;;;;;;;;4918651;29;20019;-79
2022/05/01 05:43:07;;;;;;;11.90;4.05;;;;;;;;;;4935443;29;20502;-80
2022/05/01 05:45:32;;;;;;;9.48;3.45;;;;;;;;;;4918574;29;20057;-79
2022/05/01 05:48:01;;;;;;;9.13;3.83;;;;;;;;;;4918411;29;20031;-78
2022/05/01 05:50:26;;;;;;;6.15;3.40;;;;;;;;;;4935572;29;20476;-80
2022/05/01 05:52:54;;;;;;;12.35;3.72;;;;;;;;;;4935278;29;20018;-78
2022/05/01 05:55:19;;;;;;;6.22;3.50;;;;;;;;;;4935603;29;20035;-78
2022/05/01 05:57:45;;;;;;;5.50;3.40;;;;;;;;;;4918410;29;20024;-78
2022/05/01 06:00:14;;;;;;;9.90;3.88;;;;;;;;;;4918593;29;20395;-79
2022/05/01 06:02:39;;;;;;;14.65;5.25;;;;;;;;;;4918005;29;20483;-79
2022/05/01 06:05:04;;;;;;;9.23;3.60;;;;;;;;;;4935371;29;20027;-79
2022/05/01 06:07:30;;;;;;;6.20;3.42;;;;;;;;;;4934436;29;20016;-79
2022/05/01 06:09:55;;;;;;;9.18;3.53;;;;;;;;;;4935335;29;20491;-79
2022/05/01 06:12:20;;;;;;;6.60;3.58;;;;;;;;;;4918075;29;20136;-80
2022/05/01 06:14:45;;;;;;;7.07;3.50;;;;;;;;;;4934940;29;20059;-79
2022/05/01 06:17:14;;;;;;;8.10;3.50;;;;;;;;;;4918084;29;20028;-81
2022/05/01 06:19:39;;;;;;;6.30;3.50;;;;;;;;;;4918434;29;20499;-79
2022/05/01 06:22:05;;;;;;;9.15;3.83;;;;;;;;;;4918194;29;20039;-80
2022/05/01 06:24:30;;;;;;;7.35;3.15;;;;;;;;;;4934500;29;20028;-80
2022/05/01 06:26:58;;;;;;;10.48;4.03;;;;;;;;;;4935018;29;20037;-79
2022/05/01 06:29:24;;;;;;;13.13;4.30;;;;;;;;;;4935501;29;20427;-79
2022/05/01 06:31:52;;;;;;;9.20;3.85;;;;;;;;;;4934966;29;20036;-79
2022/05/01 06:34:18;;;;;;;9.80;3.95;;;;;;;;;;4934412;29;20032;-80
2022/05/01 06:36:43;;;;;;;7.18;3.65;;;;;;;;;;4934863;29;20558;-78
2022/05/01 06:39:11;;;;;;;9.93;3.70;;;;;;;;;;4934756;29;20487;-79
2022/05/01 06:41:37;;;;;;;5.10;3.20;;;;;;;;;;4935025;29;20055;-80
2022/05/01 06:44:05;;;;;;;5.88;3.47;;;;;;;;;;4935196;29;20047;-81
2022/05/01 06:46:30;;;;;;;5.75;3.40;;;;;;;;;;4917986;29;20020;-78
2022/05/01 06:48:56;;;;;;;11.98;4.65;;;;;;;;;;4935596;29;20023;-79
2022/05/01 06:51:21;;;;;;;11.60;3.83;;;;;;;;;;4935112;29;20514;-78
2022/05/01 06:53:46;;;;;;;9.00;3.75;;;;;;;;;;4916668;29;20032;-78
2022/05/01 06:56:11;;;;;;;6.25;3.20;;;;;;;;;;4934636;29;20380;-78
2022/05/01 06:58:37;;;;;;;9.10;3.60;;;;;;;;;;4917363;29;20483;-80
2022/05/01 07:01:02;;;;;;;8.80;3.78;;;;;;;;;;4934286;29;20494;-80
2022/05/01 07:03:27;;;;;;;7.55;4.03;;;;;;;;;;4933927;29;20460;-80
2022/05/01 07:05:52;;;;;;;6.32;3.63;;;;;;;;;;4934408;29;20098;-79
2022/05/01 07:08:17;;;;;;;11.70;4.03;;;;;;;;;;4935059;29;20483;-80
2022/05/01 07:10:43;;;;;;;6.38;3.35;;;;;;;;;;4917268;29;20024;-78
2022/05/01 07:13:10;;;;;;;8.90;3.60;;;;;;;;;;4934364;29;20019;-78
2022/05/01 07:15:35;;;;;;;7.05;3.60;;;;;;;;;;4917135;29;20391;-80
2022/05/01 07:18:00;;;;;;;10.57;3.55;;;;;;;;;;4935195;29;20020;-81
2022/05/01 07:20:25;;;;;;;8.10;3.85;;;;;;;;;;4939291;29;20023;-80
2022/05/01 07:22:51;;;;;;;16.33;4.43;;;;;;;;;;4938008;29;20296;-78
2022/05/01 07:25:16;;;;;;;6.67;3.63;;;;;;;;;;4937842;29;20059;-79
2022/05/01 07:27:41;;;;;;;7.90;4.28;;;;;;;;;;4920896;29;20265;-79
2022/05/01 07:30:06;;;;;;;7.97;3.63;;;;;;;;;;4937866;29;20100;-79
2022/05/01 07:32:31;;;;;;;7.85;3.65;;;;;;;;;;4920870;29;20487;-82
2022/05/01 07:34:57;;;;;;;7.73;3.60;;;;;;;;;;4921276;29;20026;-81
2022/05/01 07:37:24;;;;;;;7.80;3.65;;;;;;;;;;4921522;29;20254;-80
2022/05/01 07:39:49;;;;;;;8.07;3.60;;;;;;;;;;4920942;29;20020;-81
2022/05/01 07:42:14;;;;;;;8.27;4.05;;;;;;;;;;4921427;29;20027;-80
2022/05/01 07:45:01;;;;;;;8.23;3.93;;;;;;;;;;4920680;29;20024;-82
2022/05/01 07:47:25;;;;;;;12.10;4.50;;;;;;;;;;4937673;29;20265;-82
2022/05/01 07:49:54;;;;;;;7.57;3.85;;;;;;;;;;4938265;29;20016;-81
2022/05/01 07:52:19;;;;;;;8.27;3.70;;;;;;;;;;4922688;29;20491;-79
2022/05/01 07:54:44;;;;;;;8.63;3.90;;;;;;;;;;4938759;29;20024;-82
2022/05/01 07:57:10;;;;;;;13.85;4.30;;;;;;;;;;4921055;29;20016;-79
2022/05/01 07:59:38;;;;;;;11.20;4.22;;;;;;;;;;4937600;29;20147;-79
2022/05/01 08:02:03;;;;;;;8.73;3.72;;;;;;;;;;4921298;29;20051;-81
2022/05/01 08:04:29;;;;;;;10.60;4.05;;;;;;;;;;4919911;29;20566;-80
2022/05/01 08:06:58;;;;;;;6.53;4.00;;;;;;;;;;4937494;29;20030;-81
2022/05/01 08:09:23;;;;;;;9.55;4.00;;;;;;;;;;4937483;29;20023;-80
2022/05/01 08:11:49;;;;;;;9.38;3.58;;;;;;;;;;4937112;29;20522;-80
2022/05/01 08:14:14;;;;;;;9.70;4.18;;;;;;;;;;4936753;29;20026;-81
2022/05/01 08:16:40;;;;;;;9.00;4.40;;;;;;;;;;4937234;29;20019;-78
2022/05/01 08:21:49;;;;;;;9.43;4.65;;;;;;;;;;4937708;29;20030;-78
2022/05/01 08:24:15;;;;;;;11.13;4.50;;;;;;;;;;4920070;29;20019;-80
2022/05/01 08:26:47;;;;;;;7.13;4.20;;;;;;;;;;4937144;29;20498;-81
2022/05/01 08:29:14;;;;;;;11.20;4.43;;;;;;;;;;4937184;29;20028;-80
2022/05/01 08:31:46;;;;;;;10.45;4.50;;;;;;;;;;4919509;29;20024;-78
2022/05/01 08:34:11;;;;;;;10.32;4.53;;;;;;;;;;4919404;29;20034;-80
2022/05/01 08:36:37;;;;;;;9.10;4.30;;;;;;;;;;4920068;29;20020;-80
2022/05/01 08:39:03;;;;;;;9.45;4.30;;;;;;;;;;4937378;29;20026;-80
2022/05/01 08:41:29;;;;;;;8.68;5.28;;;;;;;;;;4919940;29;20024;-80
2022/05/01 08:43:56;;;;;;;9.90;5.00;;;;;;;;;;4937120;29;20024;-80
2022/05/01 08:46:36;;;;;;;10.50;4.93;;;;;;;;;;4936741;29;20107;-80
2022/05/01 08:49:04;;;;;;;11.30;4.38;;;;;;;;;;4936581;29;20027;-79
2022/05/01 08:51:39;;;;;;;8.75;4.80;;;;;;;;;;4936688;29;20024;-80
2022/05/01 08:54:06;;;;;;;6.78;3.90;;;;;;;;;;4936188;29;20023;-80
2022/05/01 08:56:40;;;;;;;12.35;5.05;;;;;;;;;;4936543;29;20468;-79
2022/05/01 08:59:25;;;;;;;11.25;4.72;;;;;;;;;;4919731;29;20043;-80
2022/05/01 09:01:52;;;;;;;11.15;5.22;;;;;;;;;;4936598;29;20027;-80
2022/05/01 09:04:17;;;;;;;10.52;4.93;;;;;;;;;;4919265;29;20028;-80
2022/05/01 09:06:44;;;;;;;9.88;4.53;;;;;;;;;;4936639;29;20514;-80
2022/05/01 09:09:11;;;;;;;8.43;4.97;;;;;;;;;;4920155;29;20030;-80
2022/05/01 09:14:21;;;;;;;11.95;5.18;;;;;;;;;;4936189;29;20030;-80
2022/05/01 09:17:05;;;;;;;13.30;5.65;;;;;;;;;;4919864;29;20031;-81
2022/05/01 09:19:30;;;;;;;8.38;4.43;;;;;;;;;;4938078;29;20043;-80
2022/05/01 09:21:56;;;;;;;10.85;4.80;;;;;;;;;;4922072;29;20024;-81
2022/05/01 09:24:28;;;;;;;12.40;5.77;;;;;;;;;;4939609;29;20151;-81
2022/05/01 09:27:02;;;;;;;12.43;6.63;;;;;;;;;;4936582;29;20321;-80
2022/05/01 09:29:37;;;;;;;31.35;12.93;;;;;;;;;;4936018;29;20026;-81
2022/05/01 09:32:03;;;;;;;14.13;5.88;;;;;;;;;;4936516;29;20027;-80
2022/05/01 09:34:32;;;;;;;12.18;6.10;;;;;;;;;;4918658;29;20335;-82
2022/05/01 09:37:03;;;;;;;9.20;5.13;;;;;;;;;;4925136;23;20051;-78
2022/05/01 09:39:30;;;;;;;10.13;5.78;;;;;;;;;;4897708;29;20045;-79
2022/05/01 09:42:15;;;;;;;11.27;7.25;;;;;;;;;;4899234;29;20119;-79
2022/05/01 09:44:40;;;;;;;11.45;6.05;;;;;;;;;;4899138;29;20039;-81
2022/05/01 09:47:07;;;;;;;12.98;7.45;;;;;;;;;;4898254;29;20465;-79
2022/05/01 09:49:44;;;;;;;16.40;7.78;;;;;;;;;;4897135;29;20085;-78
2022/05/01 09:52:10;;;;;;;15.27;5.90;;;;;;;;;;4898017;29;20123;-79
2022/05/01 09:54:35;;;;;;;13.47;5.83;;;;;;;;;;4897324;29;20533;-79
2022/05/01 09:57:03;;;;;;;11.40;6.28;;;;;;;;;;4897259;29;20266;-80
2022/05/01 09:59:31;;;;;;;12.32;6.50;;;;;;;;;;4896104;29;20263;-79
2022/05/01 10:01:57;;;;;;;;;;;;;;;;;;4898052;29;20028;-79
2022/05/01 10:04:28;;;;;;;11.63;6.38;;;;;;;;;;4911675;29;19955;-79
2022/05/01 10:06:54;;;;;;;17.30;9.45;;;;;;;;;;4897148;29;20465;-78
2022/05/01 10:09:29;;;;;;;16.23;7.88;;;;;;;;;;4897512;29;20029;-79
2022/05/01 10:11:55;;;;;;;12.88;7.60;;;;;;;;;;4896190;29;20484;-80
2022/05/01 10:14:21;;;;;;;14.00;8.30;;;;;;;;;;4896904;29;20024;-80
2022/05/01 10:16:47;;;;;;;13.45;6.07;;;;;;;;;;4896030;29;20027;-79
2022/05/01 10:19:14;;;;;;;10.65;6.03;;;;;;;;;;4897101;29;20051;-80
2022/05/01 10:21:39;;;;;;;14.27;5.72;;;;;;;;;;4897372;29;20020;-79
2022/05/01 10:24:05;;;;;;;10.02;5.60;;;;;;;;;;4897061;29;20071;-80
2022/05/01 10:26:32;;;;;;;10.60;6.00;;;;;;;;;;4896478;29;20167;-80
2022/05/01 10:29:00;;;;;;;11.27;5.90;;;;;;;;;;4900071;29;20477;-81
2022/05/01 10:34:43;;;;;;;9.73;5.45;;;;;;;;;;4898093;29;20503;-79
2022/05/01 10:37:28;;;;;;;10.52;5.40;;;;;;;;;;4897843;29;20029;-80
2022/05/01 10:39:53;;;;;;;9.57;5.97;;;;;;;;;;4897928;29;20043;-80
2022/05/01 10:42:35;;;;;;;9.73;5.50;;;;;;;;;;4898089;29;20025;-79
2022/05/01 10:45:01;;;;;;;10.85;5.80;;;;;;;;;;4897531;29;20104;-79
2022/05/01 10:47:35;;;;;;;10.90;5.78;;;;;;;;;;4898299;29;20473;-79
2022/05/01 10:50:05;;;;;;;11.38;6.25;;;;;;;;;;4899681;29;20032;-79
2022/05/01 10:52:33;;;;;;;12.30;7.05;;;;;;;;;;4896060;29;20052;-81
2022/05/01 10:55:01;;;;;;;9.00;4.80;;;;;;;;;;4895217;29;20021;-80
2022/05/01 10:57:26;;;;;;;11.23;4.90;;;;;;;;;;4895802;29;20176;-80
2022/05/01 11:00:05;;;;;;;9.80;5.45;;;;;;;;;;4897314;29;20111;-78
2022/05/01 11:02:58;;;;;;;11.40;6.35;;;;;;;;;;4897375;29;20271;-80
2022/05/01 11:05:39;;;;;;;8.68;4.32;;;;;;;;;;4897984;29;20033;-78
2022/05/01 11:08:11;;;;;;;10.90;5.18;;;;;;;;;;4898812;29;20024;-79
2022/05/01 11:10:37;;;;;;;10.00;5.60;;;;;;;;;;4899065;29;20016;-80
2022/05/01 11:13:11;;;;;;;9.63;4.78;;;;;;;;;;4898510;29;20024;-79
2022/05/01 11:15:44;;;;;;;10.85;5.90;;;;;;;;;;4897512;29;20028;-80
2022/05/01 11:18:12;;;;;;;12.50;5.32;;;;;;;;;;4897296;29;20016;-79
2022/05/01 11:20:43;;;;;;;15.40;5.78;;;;;;;;;;4896088;29;20048;-80
2022/05/01 11:23:29;;;;;;;10.30;5.63;;;;;;;;;;4897008;29;20047;-80
2022/05/01 11:26:08;;;;;;;6.90;4.68;;;;;;;;;;4899440;29;20021;-80
2022/05/01 11:28:52;;;;;;;12.43;5.32;;;;;;;;;;4901944;29;20024;-80
2022/05/01 11:31:36;;;;;;;9.90;5.20;;;;;;;;;;4896907;29;20017;-80
2022/05/01 11:34:16;;;;;;;10.55;5.50;;;;;;;;;;4900193;29;20028;-80
2022/05/01 11:36:57;;;;;;;10.63;5.35;;;;;;;;;;4898330;29;20107;-80
2022/05/01 11:39:22;;;;;;;13.35;5.57;;;;;;;;;;4900094;29;20112;-80
2022/05/01 11:42:03;;;;;;;9.32;5.03;;;;;;;;;;4901532;29;20488;-81
2022/05/01 11:44:29;;;;;;;11.40;4.90;;;;;;;;;;4902001;29;20445;-79
2022/05/01 11:46:56;;;;;;;10.85;4.78;;;;;;;;;;4902076;29;20029;-78
2022/05/01 11:49:22;;;;;;;9.00;4.32;;;;;;;;;;4900161;29;20086;-79
2022/05/01 11:51:47;;;;;;;11.67;4.80;;;;;;;;;;4900937;29;20028;-78
2022/05/01 11:54:15;;;;;;;9.55;5.13;;;;;;;;;;4901080;29;20256;-79
2022/05/01 12:02:26;;;;;;;8.85;4.60;;;;;;;;;;4901401;29;20032;-80
2022/05/01 12:04:57;;;;;;;10.80;4.75;;;;;;;;;;4899688;29;20061;-79
2022/05/01 12:07:22;;;;;;;7.57;4.30;;;;;;;;;;4904949;29;20536;-81
2022/05/01 12:09:48;;;;;;;9.00;4.75;;;;;;;;;;4905426;29;20029;-80
2022/05/01 12:12:16;;;;;;;11.75;5.05;;;;;;;;;;4903213;29;20484;-80
2022/05/01 12:14:42;;;;;;;8.30;4.20;;;;;;;;;;4900820;29;20076;-81
2022/05/01 12:17:08;;;;;;;8.30;4.20;;;;;;;;;;4903717;29;20020;-81
2022/05/01 12:19:37;;;;;;;8.00;4.40;;;;;;;;;;4900205;29;20024;-80
2022/05/01 12:22:03;;;;;;;7.40;4.03;;;;;;;;;;4898823;29;20084;-79
2022/05/01 12:24:29;;;;;;;11.75;4.85;;;;;;;;;;4899944;29;20036;-79
2022/05/01 12:26:55;;;;;;;9.65;4.80;;;;;;;;;;4900356;29;20021;-79
2022/05/01 12:29:20;;;;;;;8.88;4.57;;;;;;;;;;4899066;29;20476;-79
2022/05/01 12:32:02;;;;;;;12.23;4.75;;;;;;;;;;4899929;29;20034;-78
2022/05/01 12:34:28;;;;;;;8.88;4.78;;;;;;;;;;4898632;29;20044;-78
2022/05/01 12:37:01;;;;;;;9.60;4.70;;;;;;;;;;4899774;29;20032;-79
2022/05/01 12:39:27;;;;;;;11.93;5.18;;;;;;;;;;4900085;29;20043;-79
2022/05/01 12:45:09;;;;;;;7.22;3.95;;;;;;;;;;4882263;29;20417;-80
2022/05/01 12:47:39;;;;;;;7.35;4.38;;;;;;;;;;4901993;29;20021;-78
2022/05/01 12:50:06;;;;;;;8.40;4.18;;;;;;;;;;4901377;29;20052;-79
2022/05/01 12:52:31;;;;;;;8.23;4.50;;;;;;;;;;4899573;29;20497;-79
2022/05/01 12:55:18;;;;;;;5.63;3.67;;;;;;;;;;4899351;29;20076;-78
2022/05/01 12:57:50;;;;;;;8.70;3.90;;;;;;;;;;4901815;29;20030;-79
2022/05/01 13:00:29;;;;;;;6.22;3.60;;;;;;;;;;4897909;29;20048;-78
2022/05/01 13:02:57;;;;;;;7.80;3.95;;;;;;;;;;4897587;29;20485;-79
2022/05/01 13:05:22;;;;;;;;;;;;;;;;;;4899282;29;20032;-79
2022/05/01 13:07:47;;;;;;;7.22;3.95;;;;;;;;;;4913405;29;19907;-79
2022/05/01 13:10:18;;;;;;;7.93;4.13;;;;;;;;;;4898909;29;20137;-79
2022/05/01 13:12:56;;;;;;;6.45;3.45;;;;;;;;;;4898710;29;20020;-80
2022/05/01 13:15:35;;;;;;;7.82;3.92;;;;;;;;;;4898867;29;20028;-79
2022/05/01 13:18:03;;;;;;;8.40;4.20;;;;;;;;;;4897266;29;20392;-79
2022/05/01 13:20:28;;;;;;;6.63;4.00;;;;;;;;;;4898872;29;20025;-79
2022/05/01 13:22:53;;;;;;;11.97;4.13;;;;;;;;;;4899629;29;20031;-80
2022/05/01 13:25:19;;;;;;;6.77;4.27;;;;;;;;;;4900869;29;20512;-79
2022/05/01 13:27:44;;;;;;;9.13;4.63;;;;;;;;;;4898878;29;20631;-79
2022/05/01 13:30:10;;;;;;;10.52;4.63;;;;;;;;;;4898672;29;20048;-80
2022/05/01 13:32:35;;;;;;;10.07;4.18;;;;;;;;;;4898203;29;20080;-80
2022/05/01 13:35:00;;;;;;;13.77;3.97;;;;;;;;;;4898542;29;20035;-81
2022/05/01 13:37:30;;;;;;;6.75;3.80;;;;;;;;;;4898358;29;20028;-82
2022/05/01 13:45:23;;;;;;;14.45;5.40;;;;;;;;;;4898427;29;20084;-79
2022/05/01 13:47:49;;;;;;;6.90;3.85;;;;;;;;;;4896656;29;20401;-80
2022/05/01 13:50:14;;;;;;;7.25;3.95;;;;;;;;;;4898188;29;20032;-79
2022/05/01 13:52:39;;;;;;;6.27;3.57;;;;;;;;;;4896613;29;20021;-81
2022/05/01 13:55:05;;;;;;;5.65;3.80;;;;;;;;;;4897114;29;20271;-79
2022/05/01 13:57:31;;;;;;;6.32;3.78;;;;;;;;;;4898039;29;20245;-79
2022/05/01 13:59:56;;;;;;;7.03;4.97;;;;;;;;;;4898501;29;20069;-80
2022/05/01 14:02:21;;;;;;;5.97;3.53;;;;;;;;;;4896765;29;20029;-80
2022/05/01 14:04:49;;;;;;;7.50;4.03;;;;;;;;;;4897475;29;20392;-80
2022/05/01 14:07:15;;;;;;;7.57;3.90;;;;;;;;;;4896386;29;20270;-80
2022/05/01 14:09:41;;;;;;;9.02;3.90;;;;;;;;;;4897672;29;20040;-79
2022/05/01 14:12:08;;;;;;;6.47;4.10;;;;;;;;;;4897765;29;20024;-78
2022/05/01 14:14:45;;;;;;;6.05;3.78;;;;;;;;;;4896173;29;20088;-80
2022/05/01 14:17:11;;;;;;;9.93;4.00;;;;;;;;;;4896423;29;20042;-81
2022/05/01 14:19:38;;;;;;;7.80;3.37;;;;;;;;;;4898271;29;20349;-80
2022/05/01 14:22:03;;;;;;;5.78;3.38;;;;;;;;;;4898741;29;20335;-80
2022/05/01 14:24:29;;;;;;;6.53;3.85;;;;;;;;;;4900204;29;20052;-79
2022/05/01 14:26:54;;;;;;;9.95;3.53;;;;;;;;;;4897604;29;20021;-78
2022/05/01 14:29:19;;;;;;;6.85;3.40;;;;;;;;;;4896976;29;20500;-79
2022/05/01 14:32:03;;;;;;;11.10;4.37;;;;;;;;;;4897240;29;20028;-79
2022/05/01 14:34:42;;;;;;;6.38;3.35;;;;;;;;;;4895671;29;20272;-79
2022/05/01 14:37:12;;;;;;;5.72;3.63;;;;;;;;;;4897262;29;20496;-80
2022/05/01 14:39:40;;;;;;;6.55;3.63;;;;;;;;;;4896994;29;20059;-79
2022/05/01 14:42:13;;;;;;;6.80;3.65;;;;;;;;;;4896097;29;20032;-80
2022/05/01 14:44:46;;;;;;;8.13;3.70;;;;;;;;;;4896881;29;20016;-79
2022/05/01 14:47:14;;;;;;;11.60;3.50;;;;;;;;;;4897157;29;20056;-80
2022/05/01 14:49:57;;;;;;;8.38;4.07;;;;;;;;;;4897093;29;20020;-80
2022/05/01 14:52:24;;;;;;;7.38;3.78;;;;;;;;;;4896895;29;20032;-78
2022/05/01 14:54:49;;;;;;;9.35;4.40;;;;;;;;;;4896886;29;20024;-79
2022/05/01 14:57:24;;;;;;;6.85;3.80;;;;;;;;;;4896676;29;20025;-79
2022/05/01 15:08:24;;;;;;;6.05;3.72;;;;;;;;;;4896689;29;20072;-80
2022/05/01 15:10:55;;;;;;;8.05;3.63;;;;;;;;;;4896836;29;20025;-78
2022/05/01 15:13:20;;;;;;;8.88;3.30;;;;;;;;;;4889353;29;20032;-80
2022/05/01 15:15:48;;;;;;;8.02;3.78;;;;;;;;;;4896602;29;20017;-78
2022/05/01 15:18:17;;;;;;;6.32;3.70;;;;;;;;;;4895589;29;20021;-80
2022/05/01 15:20:48;;;;;;;8.88;4.55;;;;;;;;;;4897068;29;20025;-79
2022/05/01 15:23:23;;;;;;;10.55;3.58;;;;;;;;;;4900628;29;20020;-80
2022/05/01 15:25:51;;;;;;;7.35;3.30;;;;;;;;;;4900847;29;20054;-79
2022/05/01 15:28:18;;;;;;;8.25;3.40;;;;;;;;;;4895699;29;20021;-80
2022/05/01 15:30:47;;;;;;;8.57;3.50;;;;;;;;;;4896791;29;20107;-81
2022/05/01 15:35:54;;;;;;;9.85;3.80;;;;;;;;;;4896191;29;20021;-78
2022/05/01 15:38:45;;;;;;;6.00;3.30;;;;;;;;;;4910833;23;20035;-80
2022/05/01 15:41:34;;;;;;;7.65;3.70;;;;;;;;;;4897056;29;20044;-81